Airfield :
LOGIN :

Register | Disclaimer

   EN    FR    IT 

 










Legend :    VFR   Marginal VFR   IFR   Intensive IFR   Very Intensive IFR
Visi :
Ceiling :
>= 8 km
>= 3000ft
5 to 8 km
1000 to 3000 ft
1500m to 5 km
500 to 1000 ft
800 to 1500m
200 to 500 ft
< 800m
< 200 ft
Symbols :   Thunderstorms  Fog  Heavy snow  Heavy precipitations  Wind > 20 kt
SIGMETs :     Misc.  Thunderstorms  Icing  Turbulence  Mountain Waves  Volcanic Ashes






- Airport Elevation : 75 ft
- IATA code : MRH


EGYM - RAF Marham

CURRENT METAR :
  • 192020Z AUTO 13008KT 9999 FEW120/// 24/15 Q1012

EXPIRED METARs :
  • 191950Z AUTO 13007KT 9999 NCD 25/15 Q1012
  • 191920Z AUTO 13008KT 9999 NCD 25/15 Q1013
  • 191850Z AUTO 14009KT 9999 NCD 27/14 Q1012
  • 191820Z AUTO 15010KT 9999 NCD 27/14 Q1013
  • 191750Z AUTO 15012KT 9999 NCD 28/14 Q1013
  • 191720Z AUTO 15012KT 9999 NCD 28/14 Q1013
  • 191650Z AUTO 14012KT 9999 FEW062/// 29/14 Q1013
  • 191620Z AUTO 18010KT 9999 NCD 29/15 Q1013
  • 191550Z AUTO 19011KT 9999 FEW063/// 30/14 Q1014

Expired Forecast.



MET'MAP, your aeronautical weather chart ! - Copyright ORBIFLY December 2007 - Disclaimer

ORBIFLY MET'MAP TEAM :

Programming & Development : Alexandra Zaïnal
Original concept : Baudouin d'Aumeries
Technical & hardware support : Manuel Goepfert
Assistance : Marc-Olivier Méhu




SOURCES & CREDITS :

   NOAA